Terminal Aerodrome Forecast
Issued by NWS Glasgow, MT

Home | Current Version | Previous Version | Text Only | Print | Product List | Glossary On
Versions: 1 2 3 4 5 6 7 8 9 10 11 12 13
172
FTUS45 KGGW 242320
TAFGGW
TAF
KGGW 242320Z 2500/2524 16014KT P6SM SCT170
     FM250400 13013KT P6SM BKN110 WS020/18035KT
     FM251000 16009KT P6SM BKN090 WS020/27025KT
     FM251200 25005KT P6SM BKN110=

USA.gov is the U.S. government's official web portal to all federal, state and local government web resources and services.